Time;durP1;ratioP1;P1;durP2;ratioP2;P2;SDS_P1;SDS_P2;PMS_P1;PMS_P2;Temp;Humidity;BMP_temperature;BMP_pressure;BME280_temperature;BME280_humidity;BME280_pressure;Samples;Min_cycle;Max_cycle;Signal;HPM_P1;HPM_P2
2022/05/05 00:01:41;;;;;;;;;;;;;;;;;;4994343;28;1068;-71
2022/05/05 00:04:08;;;;;;;;;;;;;;;;;;4993944;28;1325;-71
2022/05/05 00:06:34;;;;;;;;;;;;;;;;;;4993742;28;890;-70
2022/05/05 00:09:01;;;;;;;;;;;;;;;;;;4992755;28;1282;-71
2022/05/05 00:14:27;;;;;;;;;;;;;;;;;;4993907;28;1327;-71
2022/05/05 00:16:56;;;;;;;;;;;;;;;;;;4993197;28;1081;-70
2022/05/05 00:19:22;;;;;;;;;;;;;;;;;;4993916;28;1922;-70
2022/05/05 00:21:48;;;;;;;;;;;;;;;;;;4993665;28;1017;-71
2022/05/05 00:24:16;;;;;;;;;;;;;;;;;;4993497;28;1380;-70
2022/05/05 00:26:42;;;;;;;;;;;;;;;;;;4993231;28;1127;-70
2022/05/05 00:29:08;;;;;;;;;;;;;;;;;;4993360;28;996;-71
2022/05/05 00:31:35;;;;;;;;;;;;;;;;;;4993233;28;1095;-70
2022/05/05 00:34:02;;;;;;;;;;;;;;;;;;4993249;28;1392;-70
2022/05/05 00:36:28;;;;;;;;;;;;;;;;;;4993127;28;1099;-71
2022/05/05 00:38:54;;;;;;;;;;;;;;;;;;4993367;28;1973;-70
2022/05/05 00:41:21;;;;;;;;;;;;;;;;;;4994291;28;1087;-72
2022/05/05 00:43:47;;;;;;;;;;;;;;;;;;4993315;28;1291;-71
2022/05/05 00:46:13;;;;;;;;;;;;;;;;;;4992865;28;1080;-71
2022/05/05 00:48:40;;;;;;;;;;;;;;;;;;4993194;28;909;-71
2022/05/05 00:51:08;;;;;;;;;;;;;;;;;;4992929;28;973;-70
2022/05/05 00:53:34;;;;;;;;;;;;;;;;;;4993222;28;1316;-70
2022/05/05 00:56:03;;;;;;;;;;;;;;;;;;4993000;28;1092;-70
2022/05/05 00:58:29;;;;;;;;;;;;;;;;;;4992663;28;1926;-70
2022/05/05 01:00:56;;;;;;;;;;;;;;;;;;4992865;28;1114;-71
2022/05/05 01:03:22;;;;;;;;;;;;;;;;;;4993011;28;1358;-71
2022/05/05 01:05:48;;;;;;;;;;;;;;;;;;4991688;28;1189;-71
2022/05/05 01:08:16;;;;;;;;;;;;;;;;;;4992296;28;848;-71
2022/05/05 01:10:42;;;;;;;;;;;;;;;;;;4992648;28;922;-71
2022/05/05 01:13:08;;;;;;;;;;;;;;;;;;4992674;28;1298;-72
2022/05/05 01:15:35;;;;;;;;;;;;;;;;;;4992625;28;1498;-70
2022/05/05 01:18:02;;;;;;;;;;;;;;;;;;4992229;28;835;-72
2022/05/05 01:20:28;;;;;;;;;;;;;;;;;;4991172;28;1902;-71
2022/05/05 01:22:55;;;;;;;;;;;;;;;;;;4992256;28;1279;-71
2022/05/05 01:28:12;;;;;;;;;;;;;;;;;;4992304;28;867;-71
2022/05/05 01:30:39;;;;;;;;;;;;;;;;;;4991866;28;1060;-71
2022/05/05 01:33:12;;;;;;;;;;;;;;;;;;4994745;28;1492;-71
2022/05/05 01:35:39;;;;;;;;;;;;;;;;;;4992418;28;1076;-71
2022/05/05 01:38:06;;;;;;;;;;;;;;;;;;4992060;28;966;-71
2022/05/05 01:40:32;;;;;;;;;;;;;;;;;;4992132;28;1990;-71
2022/05/05 01:42:59;;;;;;;;;;;;;;;;;;4992013;28;1302;-72
2022/05/05 01:45:25;;;;;;;;;;;;;;;;;;4992316;28;1143;-71
2022/05/05 01:47:51;;;;;;;;;;;;;;;;;;4991742;28;934;-71
2022/05/05 01:50:17;;;;;;;;;;;;;;;;;;4992102;28;786;-71
2022/05/05 01:52:44;;;;;;;;;;;;;;;;;;4991889;28;1321;-71
2022/05/05 01:55:12;;;;;;;;;;;;;;;;;;4992047;28;1052;-70
2022/05/05 01:57:38;;;;;;;;;;;;;;;;;;4991559;28;878;-71
2022/05/05 02:00:05;;;;;;;;;;;;;;;;;;4990563;28;1981;-71
2022/05/05 02:02:40;;;;;;;;;;;;;;;;;;4991410;28;1404;-71
2022/05/05 02:05:07;;;;;;;;;;;;;;;;;;4990676;28;1116;-71
2022/05/05 02:07:34;;;;;;;;;;;;;;;;;;4991754;28;977;-71
2022/05/05 02:10:01;;;;;;;;;;;;;;;;;;4990794;28;1194;-72
2022/05/05 02:12:29;;;;;;;;;;;;;;;;;;4992290;28;1301;-72
2022/05/05 02:14:55;;;;;;;;;;;;;;;;;;4992665;28;1021;-71
2022/05/05 02:17:21;;;;;;;;;;;;;;;;;;5004384;28;1126;-72
2022/05/05 02:19:47;;;;;;;;;;;;;;;;;;5004394;28;1891;-72
2022/05/05 02:22:14;;;;;;;;;;;;;;;;;;4992084;28;1384;-70
2022/05/05 02:24:40;;;;;;;;;;;;;;;;;;4992306;28;1009;-71
2022/05/05 02:27:08;;;;;;;;;;;;;;;;;;4991220;28;1068;-71
2022/05/05 02:29:35;;;;;;;;;;;;;;;;;;4993195;28;1559;-71
2022/05/05 02:32:01;;;;;;;;;;;;;;;;;;5017492;28;2118;-72
2022/05/05 02:34:27;;;;;;;;;;;;;;;;;;5024494;28;1362;-72
2022/05/05 02:39:37;;;;;;;;;;;;;;;;;;5030241;28;1922;-71
2022/05/05 02:42:04;;;;;;;;;;;;;;;;;;5029741;28;718;-72
2022/05/05 02:44:30;;;;;;;;;;;;;;;;;;5030508;28;1298;-72
2022/05/05 02:46:59;;;;;;;;;;;;;;;;;;5030403;28;838;-72
2022/05/05 02:49:27;;;;;;;;;;;;;;;;;;5025822;28;1265;-72
2022/05/05 02:51:53;;;;;;;;;;;;;;;;;;5010937;28;1076;-71
2022/05/05 02:57:04;;;;;;;;;;;;;;;;;;5010335;28;949;-71
2022/05/05 02:59:30;;;;;;;;;;;;;;;;;;5010565;28;1914;-71
2022/05/05 03:01:58;;;;;;;;;;;;;;;;;;5010641;28;1044;-72
2022/05/05 03:04:24;;;;;;;;;;;;;;;;;;5010559;28;1299;-71
2022/05/05 03:06:50;;;;;;;;;;;;;;;;;;5010624;28;1076;-72
2022/05/05 03:09:18;;;;;;;;;;;;;;;;;;5010679;28;1125;-71
2022/05/05 03:11:44;;;;;;;;;;;;;;;;;;5010512;28;1068;-72
2022/05/05 03:14:10;;;;;;;;;;;;;;;;;;5010284;28;1304;-72
2022/05/05 03:16:36;;;;;;;;;;;;;;;;;;5010459;28;1056;-72
2022/05/05 03:19:04;;;;;;;;;;;;;;;;;;5010698;28;1973;-71
2022/05/05 03:21:30;;;;;;;;;;;;;;;;;;5010613;28;930;-71
2022/05/05 03:23:56;;;;;;;;;;;;;;;;;;5010323;28;1297;-71
2022/05/05 03:26:22;;;;;;;;;;;;;;;;;;5018453;28;1131;-69
2022/05/05 03:28:49;;;;;;;;;;;;;;;;;;5029977;28;1009;-70
2022/05/05 03:31:15;;;;;;;;;;;;;;;;;;5006080;28;1455;-72
2022/05/05 03:33:41;;;;;;;;;;;;;;;;;;4991080;28;1270;-72
2022/05/05 03:36:09;;;;;;;;;;;;;;;;;;4990535;28;890;-71
2022/05/05 03:38:35;;;;;;;;;;;;;;;;;;4990690;28;1056;-71
2022/05/05 03:41:02;;;;;;;;;;;;;;;;;;4990671;28;1922;-71
2022/05/05 03:43:28;;;;;;;;;;;;;;;;;;4990577;28;1322;-71
2022/05/05 03:45:55;;;;;;;;;;;;;;;;;;4990803;28;783;-71
2022/05/05 03:48:21;;;;;;;;;;;;;;;;;;4990188;28;1404;-70
2022/05/05 03:50:47;;;;;;;;;;;;;;;;;;4990742;28;1072;-72
2022/05/05 03:53:15;;;;;;;;;;;;;;;;;;4991840;28;1355;-71
2022/05/05 03:55:41;;;;;;;;;;;;;;;;;;4994512;28;857;-72
2022/05/05 03:58:07;;;;;;;;;;;;;;;;;;4993891;28;1151;-71
2022/05/05 04:00:33;;;;;;;;;;;;;;;;;;4994046;28;1931;-72
2022/05/05 04:05:43;;;;;;;;;;;;;;;;;;4994347;28;1037;-71
2022/05/05 04:08:09;;;;;;;;;;;;;;;;;;4993808;28;846;-71
2022/05/05 04:10:37;;;;;;;;;;;;;;;;;;4993923;28;870;-70
2022/05/05 04:13:03;;;;;;;;;;;;;;;;;;4994159;28;1329;-72
2022/05/05 04:15:30;;;;;;;;;;;;;;;;;;4994089;28;775;-71
2022/05/05 04:17:56;;;;;;;;;;;;;;;;;;4993799;28;1060;-69
2022/05/05 04:20:22;;;;;;;;;;;;;;;;;;4992418;28;1942;-71
2022/05/05 04:22:49;;;;;;;;;;;;;;;;;;4993477;28;1321;-71
2022/05/05 04:25:16;;;;;;;;;;;;;;;;;;4993849;28;1045;-71
2022/05/05 04:27:43;;;;;;;;;;;;;;;;;;5030169;28;1478;-70
2022/05/05 04:30:10;;;;;;;;;;;;;;;;;;5033137;28;1008;-70
2022/05/05 04:32:36;;;;;;;;;;;;;;;;;;5012233;28;1482;-70
2022/05/05 04:35:03;;;;;;;;;;;;;;;;;;5013001;28;1609;-71
2022/05/05 04:37:29;;;;;;;;;;;;;;;;;;5010454;28;1364;-71
2022/05/05 04:39:55;;;;;;;;;;;;;;;;;;5008857;28;1916;-71
2022/05/05 04:42:21;;;;;;;;;;;;;;;;;;5012461;28;1388;-71
2022/05/05 04:44:49;;;;;;;;;;;;;;;;;;5012231;28;1404;-71
2022/05/05 04:47:15;;;;;;;;;;;;;;;;;;5002218;28;1534;-70
2022/05/05 04:49:42;;;;;;;;;;;;;;;;;;5012699;28;1151;-71
2022/05/05 04:52:08;;;;;;;;;;;;;;;;;;5012599;28;941;-70
2022/05/05 04:54:34;;;;;;;;;;;;;;;;;;4992719;28;1998;-69
2022/05/05 04:57:00;;;;;;;;;;;;;;;;;;4997377;28;1433;-70
2022/05/05 04:59:26;;;;;;;;;;;;;;;;;;5010021;28;1946;-70
2022/05/05 05:01:54;;;;;;;;;;;;;;;;;;5010175;28;854;-70
2022/05/05 05:04:20;;;;;;;;;;;;;;;;;;5009436;28;1301;-72
2022/05/05 05:06:46;;;;;;;;;;;;;;;;;;5007547;28;1452;-71
2022/05/05 05:09:12;;;;;;;;;;;;;;;;;;5006501;28;1381;-71
2022/05/05 05:11:39;;;;;;;;;;;;;;;;;;5010329;28;1040;-71
2022/05/05 05:14:05;;;;;;;;;;;;;;;;;;5007389;28;1430;-71
2022/05/05 05:16:31;;;;;;;;;;;;;;;;;;5004316;28;1190;-71
2022/05/05 05:18:58;;;;;;;;;;;;;;;;;;5002507;28;1059;-71
2022/05/05 05:21:25;;;;;;;;;;;;;;;;;;4989480;28;1968;-72
2022/05/05 05:23:51;;;;;;;;;;;;;;;;;;4998886;28;1480;-72
2022/05/05 05:26:17;;;;;;;;;;;;;;;;;;5010043;28;1126;-71
2022/05/05 05:28:43;;;;;;;;;;;;;;;;;;5008708;28;1401;-71
2022/05/05 05:31:10;;;;;;;;;;;;;;;;;;5010187;28;1103;-72
2022/05/05 05:33:36;;;;;;;;;;;;;;;;;;5007254;28;1511;-71
2022/05/05 05:36:04;;;;;;;;;;;;;;;;;;4990327;28;1495;-71
2022/05/05 05:38:30;;;;;;;;;;;;;;;;;;4995567;28;1412;-71
2022/05/05 05:40:57;;;;;;;;;;;;;;;;;;5008847;28;1910;-70
2022/05/05 05:43:23;;;;;;;;;;;;;;;;;;5009296;28;1475;-71
2022/05/05 05:45:49;;;;;;;;;;;;;;;;;;5009598;28;1432;-70
2022/05/05 05:48:15;;;;;;;;;;;;;;;;;;5008341;28;1424;-71
2022/05/05 05:50:41;;;;;;;;;;;;;;;;;;5000766;28;1468;-70
2022/05/05 05:53:09;;;;;;;;;;;;;;;;;;4987179;28;1452;-69
2022/05/05 05:55:35;;;;;;;;;;;;;;;;;;5009322;28;902;-70
2022/05/05 05:58:01;;;;;;;;;;;;;;;;;;5008382;28;1404;-70
2022/05/05 06:00:28;;;;;;;;;;;;;;;;;;5009757;28;1891;-70
2022/05/05 06:05:38;;;;;;;;;;;;;;;;;;5007132;28;1547;-70
2022/05/05 06:08:04;;;;;;;;;;;;;;;;;;5011058;28;1218;-71
2022/05/05 06:10:32;;;;;;;;;;;;;;;;;;5009290;28;1443;-69
2022/05/05 06:12:58;;;;;;;;;;;;;;;;;;5007001;28;1421;-69
2022/05/05 06:15:24;;;;;;;;;;;;;;;;;;5010046;28;1512;-67
2022/05/05 06:17:50;;;;;;;;;;;;;;;;;;5008511;28;1389;-69
2022/05/05 06:20:17;;;;;;;;;;;;;;;;;;5001103;28;1918;-70
2022/05/05 06:22:43;;;;;;;;;;;;;;;;;;5013903;28;1463;-70
2022/05/05 06:25:11;;;;;;;;;;;;;;;;;;4992233;28;1123;-71
2022/05/05 06:27:38;;;;;;;;;;;;;;;;;;4990682;28;1068;-70
2022/05/05 06:30:05;;;;;;;;;;;;;;;;;;4998697;28;1409;-70
2022/05/05 06:32:32;;;;;;;;;;;;;;;;;;5009705;28;1460;-70
2022/05/05 06:34:58;;;;;;;;;;;;;;;;;;5010670;28;1394;-70
2022/05/05 06:37:24;;;;;;;;;;;;;;;;;;5007806;28;1378;-69
2022/05/05 06:39:50;;;;;;;;;;;;;;;;;;5010587;28;1911;-69
2022/05/05 06:42:16;;;;;;;;;;;;;;;;;;5008265;28;1456;-68
2022/05/05 06:44:44;;;;;;;;;;;;;;;;;;5009506;28;1365;-69
2022/05/05 06:47:11;;;;;;;;;;;;;;;;;;5009782;28;1103;-70
2022/05/05 06:49:37;;;;;;;;;;;;;;;;;;5008190;28;1366;-70
2022/05/05 06:52:04;;;;;;;;;;;;;;;;;;5008961;28;1445;-70
2022/05/05 06:54:30;;;;;;;;;;;;;;;;;;5008671;28;1397;-70
2022/05/05 06:56:56;;;;;;;;;;;;;;;;;;5009117;28;1460;-70
2022/05/05 06:59:22;;;;;;;;;;;;;;;;;;5009022;28;1131;-69
2022/05/05 07:01:52;;;;;;;;;;;;;;;;;;5007859;28;2033;-70
2022/05/05 07:07:01;;;;;;;;;;;;;;;;;;5004558;28;1419;-70
2022/05/05 07:12:12;;;;;;;;;;;;;;;;;;5009219;28;1526;-70
2022/05/05 07:14:38;;;;;;;;;;;;;;;;;;5010145;28;1395;-70
2022/05/05 07:17:05;;;;;;;;;;;;;;;;;;5008474;28;1439;-71
2022/05/05 07:19:32;;;;;;;;;;;;;;;;;;5010086;28;1209;-70
2022/05/05 07:21:58;;;;;;;;;;;;;;;;;;5005849;28;1910;-70
2022/05/05 07:24:24;;;;;;;;;;;;;;;;;;5004272;28;1391;-69
2022/05/05 07:26:50;;;;;;;;;;;;;;;;;;5009826;28;1068;-70
2022/05/05 07:29:16;;;;;;;;;;;;;;;;;;5013165;28;775;-69
2022/05/05 07:31:43;;;;;;;;;;;;;;;;;;5009485;28;1552;-69
2022/05/05 07:34:10;;;;;;;;;;;;;;;;;;5013617;28;1377;-70
2022/05/05 07:36:36;;;;;;;;;;;;;;;;;;5013478;28;925;-70
2022/05/05 07:39:03;;;;;;;;;;;;;;;;;;5011514;28;1404;-69
2022/05/05 07:41:29;;;;;;;;;;;;;;;;;;5013201;28;1919;-70
2022/05/05 07:43:56;;;;;;;;;;;;;;;;;;5013532;28;1396;-70
2022/05/05 07:46:23;;;;;;;;;;;;;;;;;;5012565;28;1045;-70
2022/05/05 07:48:49;;;;;;;;;;;;;;;;;;5004391;28;1280;-68
2022/05/05 07:51:17;;;;;;;;;;;;;;;;;;5001602;28;1448;-69
2022/05/05 07:54:34;;;;;;;;;;;;;;;;;;5010482;28;1551;-70
2022/05/05 07:56:29;;;;;;;;;;;;;;;;;;5002845;28;1413;-69
2022/05/05 07:58:56;;;;;;;;;;;;;;;;;;5011221;28;1357;-69
2022/05/05 08:01:22;;;;;;;;;;;;;;;;;;5012388;28;1981;-67
2022/05/05 08:03:48;;;;;;;;;;;;;;;;;;5013245;28;1486;-69
2022/05/05 08:06:14;;;;;;;;;;;;;;;;;;5013170;28;1068;-69
2022/05/05 08:08:42;;;;;;;;;;;;;;;;;;5013560;28;1056;-69
2022/05/05 08:11:08;;;;;;;;;;;;;;;;;;5013507;28;933;-70
2022/05/05 08:13:34;;;;;;;;;;;;;;;;;;5011368;28;1450;-70
2022/05/05 08:16:01;;;;;;;;;;;;;;;;;;5010492;28;1365;-70
2022/05/05 08:18:27;;;;;;;;;;;;;;;;;;5011386;28;1589;-69
2022/05/05 08:20:53;;;;;;;;;;;;;;;;;;5012928;28;1919;-70
2022/05/05 08:23:20;;;;;;;;;;;;;;;;;;5008903;28;1451;-70
2022/05/05 08:28:33;;;;;;;;;;;;;;;;;;5015868;28;1417;-70
2022/05/05 08:30:59;;;;;;;;;;;;;;;;;;5030288;22;3548;-70
2022/05/05 08:33:27;;;;;;;;;;;;;;;;;;5028385;28;1421;-72
2022/05/05 08:35:54;;;;;;;;;;;;;;;;;;5026473;28;1431;-70
2022/05/05 08:38:20;;;;;;;;;;;;;;;;;;5027476;28;1481;-70
2022/05/05 08:40:47;;;;;;;;;;;;;;;;;;5011631;28;1918;-70
2022/05/05 08:43:14;;;;;;;;;;;;;;;;;;5013395;28;1145;-71
2022/05/05 08:45:40;;;;;;;;;;;;;;;;;;5031027;28;1096;-70
2022/05/05 08:48:07;;;;;;;;;;;;;;;;;;5029381;28;1401;-70
2022/05/05 08:50:33;;;;;;;;;;;;;;;;;;5030155;28;1393;-71
2022/05/05 08:52:59;;;;;;;;;;;;;;;;;;5029209;28;1389;-71
2022/05/05 08:55:26;;;;;;;;;;;;;;;;;;5012126;28;1358;-70
2022/05/05 08:57:53;;;;;;;;;;;;;;;;;;5028755;28;1602;-71
2022/05/05 09:00:19;;;;;;;;;;;;;;;;;;5030747;28;1494;-71
2022/05/05 09:02:46;;;;;;;;;;;;;;;;;;5030836;28;1922;-71
2022/05/05 09:05:12;;;;;;;;;;;;;;;;;;5029679;28;1578;-72
2022/05/05 09:07:45;;;;;;;;;;;;;;;;;;5030690;28;1412;-71
2022/05/05 09:10:12;;;;;;;;;;;;;;;;;;5029222;28;1527;-70
2022/05/05 09:12:38;;;;;;;;;;;;;;;;;;5030342;28;1214;-70
2022/05/05 09:15:08;;;;;;;;;;;;;;;;;;5030742;28;1000;-70
2022/05/05 09:17:35;;;;;;;;;;;;;;;;;;5029375;28;1582;-71
2022/05/05 09:20:03;;;;;;;;;;;;;;;;;;5028535;28;1557;-71
2022/05/05 09:22:29;;;;;;;;;;;;;;;;;;5029177;28;1922;-70
2022/05/05 09:24:57;;;;;;;;;;;;;;;;;;5012660;28;1152;-70
2022/05/05 09:27:24;;;;;;;;;;;;;;;;;;5030308;28;1392;-71
2022/05/05 09:30:12;;;;;;;;;;;;;;;;;;4987225;28;990620;-71
2022/05/05 09:32:39;;;;;;;;;;;;;;;;;;5030610;28;1343;-73
2022/05/05 09:35:07;;;;;;;;;;;;;;;;;;5028068;28;1785;-72
2022/05/05 09:37:34;;;;;;;;;;;;;;;;;;5009659;28;1654;-70
2022/05/05 09:40:00;;;;;;;;;;;;;;;;;;5028547;28;1606;-71
2022/05/05 09:42:34;;;;;;;;;;;;;;;;;;5030525;28;1911;-71
2022/05/05 09:45:03;;;;;;;;;;;;;;;;;;5031052;28;688;-70
2022/05/05 09:47:31;;;;;;;;;;;;;;;;;;5029558;28;1624;-71
2022/05/05 09:49:57;;;;;;;;;;;;;;;;;;5030101;28;1692;-71
2022/05/05 09:57:52;;;;;;;;;;;;;;;;;;5030695;28;1028;-71
2022/05/05 10:00:43;;;;;;;;;;;;;;;;;;5030854;28;1413;-72
2022/05/05 10:05:55;;;;;;;;;;;;;;;;;;5030665;28;994;-71
2022/05/05 10:08:22;;;;;;;;;;;;;;;;;;5030581;28;992;-69
2022/05/05 10:10:48;;;;;;;;;;;;;;;;;;5030393;28;1297;-72
2022/05/05 10:13:14;;;;;;;;;;;;;;;;;;5029743;28;1788;-71
2022/05/05 10:15:40;;;;;;;;;;;;;;;;;;5028684;28;1824;-69
2022/05/05 10:18:08;;;;;;;;;;;;;;;;;;5030057;28;1202;-70
2022/05/05 10:20:36;;;;;;;;;;;;;;;;;;5029741;28;1779;-71
2022/05/05 10:23:03;;;;;;;;;;;;;;;;;;5018714;28;1969;-70
2022/05/05 10:25:32;;;;;;;;;;;;;;;;;;5029042;28;1570;-70
2022/05/05 10:28:00;;;;;;;;;;;;;;;;;;5017529;28;1630;-70
2022/05/05 10:30:34;;;;;;;;;;;;;;;;;;5028880;28;2376;-71
2022/05/05 10:33:00;;;;;;;;;;;;;;;;;;5029976;28;1123;-70
2022/05/05 10:35:26;;;;;;;;;;;;;;;;;;5030333;28;945;-70
2022/05/05 10:37:54;;;;;;;;;;;;;;;;;;5029010;28;1566;-71
2022/05/05 10:40:23;;;;;;;;;;;;;;;;;;5029402;28;1491;-68
2022/05/05 10:42:51;;;;;;;;;;;;;;;;;;5029861;28;1918;-71
2022/05/05 10:45:17;;;;;;;;;;;;;;;;;;5030278;28;933;-71
2022/05/05 10:48:19;;;;;;;;;;;;;;;;;;5028949;28;1765;-70
2022/05/05 10:50:53;;;;;;;;;;;;;;;;;;5027989;28;1547;-70
2022/05/05 10:53:29;;;;;;;;;;;;;;;;;;5029749;28;1000;-70
2022/05/05 10:55:55;;;;;;;;;;;;;;;;;;5026176;28;1888;-70
2022/05/05 10:58:40;;;;;;;;;;;;;;;;;;5029885;28;899;-71
2022/05/05 11:01:09;;;;;;;;;;;;;;;;;;5029585;28;1321;-71
2022/05/05 11:03:35;;;;;;;;;;;;;;;;;;5029979;28;1894;-71
2022/05/05 11:06:15;;;;;;;;;;;;;;;;;;5031230;28;1126;-71
2022/05/05 11:08:53;;;;;;;;;;;;;;;;;;5032873;28;1637;-70
2022/05/05 11:21:31;;;;;;;;;;;;;;;;;;5030188;28;2002;-71
2022/05/05 11:22:28;;;;;;;;;;;;;;;;;;5031694;28;2014;-70
2022/05/05 11:24:56;;;;;;;;;;;;;;;;;;5032912;28;1599;-71
2022/05/05 11:27:23;;;;;;;;;;;;;;;;;;5031539;28;1420;-70
2022/05/05 11:29:52;;;;;;;;;;;;;;;;;;5027009;28;1544;-70
2022/05/05 11:32:18;;;;;;;;;;;;;;;;;;5037154;28;1793;-72
2022/05/05 11:34:45;;;;;;;;;;;;;;;;;;5032910;28;1337;-71
2022/05/05 11:37:12;;;;;;;;;;;;;;;;;;5031363;28;1400;-70
2022/05/05 11:39:38;;;;;;;;;;;;;;;;;;5032988;28;1467;-71
2022/05/05 11:42:07;;;;;;;;;;;;;;;;;;5032955;28;1978;-70
2022/05/05 11:44:35;;;;;;;;;;;;;;;;;;5032516;28;1401;-68
2022/05/05 11:47:08;;;;;;;;;;;;;;;;;;5031777;28;1386;-70
2022/05/05 11:49:35;;;;;;;;;;;;;;;;;;5032231;28;1482;-71
2022/05/05 11:52:01;;;;;;;;;;;;;;;;;;5030108;28;1405;-71
2022/05/05 11:54:28;;;;;;;;;;;;;;;;;;5031371;28;1608;-69
2022/05/05 11:56:54;;;;;;;;;;;;;;;;;;5032410;28;1096;-72
2022/05/05 12:02:09;;;;;;;;;;;;;;;;;;5032279;28;1894;-70
2022/05/05 12:04:36;;;;;;;;;;;;;;;;;;5031030;28;1441;-71
2022/05/05 12:07:03;;;;;;;;;;;;;;;;;;5029257;28;1256;-71
2022/05/05 12:09:29;;;;;;;;;;;;;;;;;;5028626;28;1510;-71
2022/05/05 12:11:55;;;;;;;;;;;;;;;;;;5031923;28;1417;-70
2022/05/05 12:14:23;;;;;;;;;;;;;;;;;;5033018;28;1135;-72
2022/05/05 12:16:51;;;;;;;;;;;;;;;;;;5032523;28;866;-71
2022/05/05 12:19:18;;;;;;;;;;;;;;;;;;5015858;28;1044;-69
2022/05/05 12:21:51;;;;;;;;;;;;;;;;;;5032670;28;1980;-72
2022/05/05 12:24:18;;;;;;;;;;;;;;;;;;5034079;28;976;-70
2022/05/05 12:26:44;;;;;;;;;;;;;;;;;;5032638;28;1073;-71
2022/05/05 12:29:13;;;;;;;;;;;;;;;;;;5015100;28;1160;-71
2022/05/05 12:31:41;;;;;;;;;;;;;;;;;;5032610;28;1297;-71
2022/05/05 12:34:07;;;;;;;;;;;;;;;;;;5031051;28;1298;-72
2022/05/05 12:36:33;;;;;;;;;;;;;;;;;;5032413;28;1060;-71
2022/05/05 12:39:12;;;;;;;;;;;;;;;;;;5032777;28;1096;-71
2022/05/05 12:41:38;;;;;;;;;;;;;;;;;;5032331;28;1910;-71
2022/05/05 12:44:08;;;;;;;;;;;;;;;;;;5032515;28;815;-71
2022/05/05 12:46:34;;;;;;;;;;;;;;;;;;5029736;28;1155;-71
2022/05/05 12:49:02;;;;;;;;;;;;;;;;;;5051988;28;775;-71
2022/05/05 12:51:30;;;;;;;;;;;;;;;;;;5051534;28;1321;-71
2022/05/05 12:59:40;;;;;;;;;;;;;;;;;;5051812;28;950;-71
2022/05/05 13:02:07;;;;;;;;;;;;;;;;;;5033584;28;1946;-72
2022/05/05 13:04:34;;;;;;;;;;;;;;;;;;5051719;28;885;-72
2022/05/05 13:07:01;;;;;;;;;;;;;;;;;;5050993;28;1134;-72
2022/05/05 13:09:27;;;;;;;;;;;;;;;;;;5051286;28;1336;-69
2022/05/05 13:11:53;;;;;;;;;;;;;;;;;;5051590;28;1072;-72
2022/05/05 13:14:20;;;;;;;;;;;;;;;;;;5051892;28;886;-72
2022/05/05 13:16:47;;;;;;;;;;;;;;;;;;5050957;28;1095;-71
2022/05/05 13:19:13;;;;;;;;;;;;;;;;;;5051445;28;1080;-71
2022/05/05 13:21:41;;;;;;;;;;;;;;;;;;5051313;28;1376;-71
2022/05/05 13:24:07;;;;;;;;;;;;;;;;;;5051261;28;1918;-72
2022/05/05 13:26:33;;;;;;;;;;;;;;;;;;5050367;28;973;-72
2022/05/05 13:29:00;;;;;;;;;;;;;;;;;;5050814;28;1091;-69
2022/05/05 13:31:26;;;;;;;;;;;;;;;;;;5051033;28;1427;-71
2022/05/05 13:33:52;;;;;;;;;;;;;;;;;;5050955;28;1068;-71
2022/05/05 13:36:18;;;;;;;;;;;;;;;;;;5041243;28;1527;-72
2022/05/05 13:38:46;;;;;;;;;;;;;;;;;;5031101;28;1063;-71
2022/05/05 13:41:12;;;;;;;;;;;;;;;;;;5031053;28;1455;-72
2022/05/05 13:43:39;;;;;;;;;;;;;;;;;;5031018;28;1992;-71
2022/05/05 13:46:05;;;;;;;;;;;;;;;;;;5030512;28;878;-69
2022/05/05 13:48:32;;;;;;;;;;;;;;;;;;5030894;28;1079;-71
2022/05/05 13:50:59;;;;;;;;;;;;;;;;;;5030692;28;1397;-71
2022/05/05 13:53:25;;;;;;;;;;;;;;;;;;5029787;28;1093;-72
2022/05/05 13:55:52;;;;;;;;;;;;;;;;;;5030591;28;1167;-71
2022/05/05 13:58:19;;;;;;;;;;;;;;;;;;5009272;28;1457;-70
2022/05/05 14:00:46;;;;;;;;;;;;;;;;;;5028776;28;1442;-71
2022/05/05 14:03:12;;;;;;;;;;;;;;;;;;5030542;28;1975;-71
2022/05/05 14:05:39;;;;;;;;;;;;;;;;;;5027713;28;1412;-69
2022/05/05 14:13:34;;;;;;;;;;;;;;;;;;5029880;28;1439;-71
2022/05/05 14:16:00;;;;;;;;;;;;;;;;;;5028621;28;1388;-72
2022/05/05 14:18:26;;;;;;;;;;;;;;;;;;5029969;28;1194;-72
2022/05/05 14:20:53;;;;;;;;;;;;;;;;;;5029342;28;1372;-71
2022/05/05 14:23:20;;;;;;;;;;;;;;;;;;5030222;28;1914;-71
2022/05/05 14:25:46;;;;;;;;;;;;;;;;;;5028508;28;1547;-71
2022/05/05 14:28:12;;;;;;;;;;;;;;;;;;5026844;28;1373;-72
2022/05/05 14:30:40;;;;;;;;;;;;;;;;;;5028154;28;1572;-71
2022/05/05 14:33:06;;;;;;;;;;;;;;;;;;5045243;22;3524;-69
2022/05/05 14:35:32;;;;;;;;;;;;;;;;;;5020168;28;1753;-69
2022/05/05 14:38:01;;;;;;;;;;;;;;;;;;5007653;28;1480;-68
2022/05/05 14:40:28;;;;;;;;;;;;;;;;;;5009187;28;2183;-71
2022/05/05 14:42:54;;;;;;;;;;;;;;;;;;5009621;28;1906;-70
2022/05/05 14:45:21;;;;;;;;;;;;;;;;;;5010641;28;1131;-70
2022/05/05 14:47:48;;;;;;;;;;;;;;;;;;5009121;28;1495;-68
2022/05/05 14:50:15;;;;;;;;;;;;;;;;;;5009329;28;1440;-70
2022/05/05 14:52:41;;;;;;;;;;;;;;;;;;5009952;28;1139;-70
2022/05/05 14:55:08;;;;;;;;;;;;;;;;;;5010363;28;1294;-70
2022/05/05 14:57:36;;;;;;;;;;;;;;;;;;5010099;28;1072;-70
2022/05/05 15:00:03;;;;;;;;;;;;;;;;;;5009869;28;1397;-69
2022/05/05 15:02:29;;;;;;;;;;;;;;;;;;5008023;28;1906;-70
2022/05/05 15:04:57;;;;;;;;;;;;;;;;;;5009147;28;1419;-71
2022/05/05 15:07:25;;;;;;;;;;;;;;;;;;5007917;28;1433;-71
2022/05/05 15:09:51;;;;;;;;;;;;;;;;;;5009744;28;1401;-71
2022/05/05 15:12:18;;;;;;;;;;;;;;;;;;5001520;28;1446;-70
2022/05/05 15:14:46;;;;;;;;;;;;;;;;;;5007767;28;1449;-70
2022/05/05 15:17:12;;;;;;;;;;;;;;;;;;5008168;28;1270;-70
2022/05/05 15:19:38;;;;;;;;;;;;;;;;;;5007947;28;1476;-71
2022/05/05 15:22:08;;;;;;;;;;;;;;;;;;5004509;28;1484;-69
2022/05/05 15:24:34;;;;;;;;;;;;;;;;;;5008432;28;1977;-70
2022/05/05 15:27:00;;;;;;;;;;;;;;;;;;5005619;28;1465;-70
2022/05/05 15:29:27;;;;;;;;;;;;;;;;;;5007101;28;1218;-71
2022/05/05 15:31:53;;;;;;;;;;;;;;;;;;5017102;28;1479;-70
2022/05/05 15:34:19;;;;;;;;;;;;;;;;;;5006843;28;1453;-70
2022/05/05 15:36:46;;;;;;;;;;;;;;;;;;5006611;28;1413;-69
2022/05/05 15:39:13;;;;;;;;;;;;;;;;;;5007036;28;1358;-69
2022/05/05 15:41:40;;;;;;;;;;;;;;;;;;5006818;28;1444;-71
2022/05/05 15:44:06;;;;;;;;;;;;;;;;;;5006166;28;1978;-70
2022/05/05 15:46:34;;;;;;;;;;;;;;;;;;5007891;28;885;-70
2022/05/05 15:49:00;;;;;;;;;;;;;;;;;;5008699;28;1068;-70
2022/05/05 15:51:26;;;;;;;;;;;;;;;;;;5010908;28;1467;-70
2022/05/05 15:53:53;;;;;;;;;;;;;;;;;;5009955;28;1417;-69
2022/05/05 15:56:20;;;;;;;;;;;;;;;;;;5008029;28;1416;-70
2022/05/05 15:58:47;;;;;;;;;;;;;;;;;;5011116;28;1534;-70
2022/05/05 16:01:13;;;;;;;;;;;;;;;;;;5009607;28;1424;-70
2022/05/05 16:03:39;;;;;;;;;;;;;;;;;;5010380;28;1965;-69
2022/05/05 16:06:09;;;;;;;;;;;;;;;;;;5009347;28;1373;-69
2022/05/05 16:08:35;;;;;;;;;;;;;;;;;;5005727;28;1438;-69
2022/05/05 16:11:01;;;;;;;;;;;;;;;;;;5009339;28;1241;-69
2022/05/05 16:13:29;;;;;;;;;;;;;;;;;;4991928;28;1306;-69
2022/05/05 16:15:57;;;;;;;;;;;;;;;;;;4997455;28;1472;-69
2022/05/05 16:18:23;;;;;;;;;;;;;;;;;;5009259;28;1553;-70
2022/05/05 16:20:49;;;;;;;;;;;;;;;;;;5008858;28;1119;-68
2022/05/05 16:23:16;;;;;;;;;;;;;;;;;;5011170;28;1985;-69
2022/05/05 16:31:11;;;;;;;;;;;;;;;;;;5009357;28;1424;-70
2022/05/05 16:33:37;;;;;;;;;;;;;;;;;;5009135;28;1524;-70
2022/05/05 16:36:06;;;;;;;;;;;;;;;;;;5009636;28;2005;-71
2022/05/05 16:38:32;;;;;;;;;;;;;;;;;;5010531;28;1134;-69
2022/05/05 16:40:59;;;;;;;;;;;;;;;;;;5010361;28;1048;-70
2022/05/05 16:43:25;;;;;;;;;;;;;;;;;;5009743;28;1981;-69
2022/05/05 16:45:52;;;;;;;;;;;;;;;;;;5009147;28;1314;-70
2022/05/05 16:48:20;;;;;;;;;;;;;;;;;;5010495;28;1555;-70
2022/05/05 16:50:46;;;;;;;;;;;;;;;;;;5009583;28;1410;-70
2022/05/05 16:53:13;;;;;;;;;;;;;;;;;;5010507;28;1349;-70
2022/05/05 16:55:41;;;;;;;;;;;;;;;;;;5010379;28;807;-71
2022/05/05 16:58:07;;;;;;;;;;;;;;;;;;5009254;28;1487;-70
2022/05/05 17:00:34;;;;;;;;;;;;;;;;;;5007507;28;1436;-70
2022/05/05 17:03:00;;;;;;;;;;;;;;;;;;5009737;28;1980;-70
2022/05/05 17:05:27;;;;;;;;;;;;;;;;;;5010961;28;799;-70
2022/05/05 17:07:55;;;;;;;;;;;;;;;;;;5009148;28;1001;-71
2022/05/05 17:10:22;;;;;;;;;;;;;;;;;;5011030;28;914;-70
2022/05/05 17:12:48;;;;;;;;;;;;;;;;;;5009328;28;1059;-70
2022/05/05 17:15:14;;;;;;;;;;;;;;;;;;5010368;28;1348;-71
2022/05/05 17:17:40;;;;;;;;;;;;;;;;;;5011858;28;779;-69
2022/05/05 17:20:07;;;;;;;;;;;;;;;;;;5012391;28;1060;-69
2022/05/05 17:22:35;;;;;;;;;;;;;;;;;;5012281;28;1041;-70
2022/05/05 17:25:01;;;;;;;;;;;;;;;;;;5012014;28;1922;-70
2022/05/05 17:27:28;;;;;;;;;;;;;;;;;;5011697;28;1436;-70
2022/05/05 17:29:54;;;;;;;;;;;;;;;;;;5012244;28;1111;-69
2022/05/05 17:32:20;;;;;;;;;;;;;;;;;;5012170;28;1139;-70
2022/05/05 17:34:47;;;;;;;;;;;;;;;;;;5014279;28;1355;-69
2022/05/05 17:37:13;;;;;;;;;;;;;;;;;;5030226;28;1113;-70
2022/05/05 17:39:40;;;;;;;;;;;;;;;;;;5030508;28;1335;-70
2022/05/05 17:42:08;;;;;;;;;;;;;;;;;;5019032;28;1441;-70
2022/05/05 17:52:46;;;;;;;;;;;;;;;;;;5007470;28;1468;-69
2022/05/05 17:55:13;;;;;;;;;;;;;;;;;;5011704;28;1387;-70
2022/05/05 17:57:39;;;;;;;;;;;;;;;;;;5010517;28;1534;-70
2022/05/05 18:00:06;;;;;;;;;;;;;;;;;;5011813;28;1286;-70
2022/05/05 18:02:38;;;;;;;;;;;;;;;;;;5011807;28;706;-70
2022/05/05 18:05:04;;;;;;;;;;;;;;;;;;5011520;28;1918;-70
2022/05/05 18:07:32;;;;;;;;;;;;;;;;;;5011296;28;1076;-70
2022/05/05 18:09:58;;;;;;;;;;;;;;;;;;5004350;28;1585;-68
2022/05/05 18:12:25;;;;;;;;;;;;;;;;;;4999402;28;1404;-70
2022/05/05 18:14:51;;;;;;;;;;;;;;;;;;5009200;28;1463;-69